Time;durP1;ratioP1;P1;durP2;ratioP2;P2;SDS_P1;SDS_P2;PMS_P1;PMS_P2;Temp;Humidity;BMP_temperature;BMP_pressure;BME280_temperature;BME280_humidity;BME280_pressure;Samples;Min_cycle;Max_cycle;Signal;HPM_P1;HPM_P2
2021/08/01 03:31:45;;;;;;;29.97;17.83;;;15.20;73.80;;;;;;5847019;24;20420;-83
2021/08/01 03:34:12;;;;;;;31.17;19.40;;;15.20;73.80;;;;;;5977210;23;20457;-76
2021/08/01 03:36:39;;;;;;;31.50;22.70;;;15.10;73.70;;;;;;6119875;23;20415;-76
2021/08/01 03:39:06;;;;;;;30.10;22.90;;;15.10;74.70;;;;;;6126710;23;20493;-76
2021/08/01 03:41:34;;;;;;;36.67;27.93;;;15.10;74.80;;;;;;6126820;23;20403;-75
2021/08/01 03:44:01;;;;;;;30.83;24.30;;;15.00;75.10;;;;;;6127185;23;20508;-75
2021/08/01 03:46:28;;;;;;;35.60;31.87;;;14.90;75.20;;;;;;6125325;23;20470;-75
2021/08/01 03:48:55;;;;;;;39.60;35.40;;;14.90;76.10;;;;;;6126553;23;20822;-76
2021/08/01 03:51:22;;;;;;;52.17;47.47;;;14.80;76.80;;;;;;6136871;23;20776;-75
2021/08/01 03:53:48;;;;;;;58.13;53.47;;;14.80;77.80;;;;;;6136327;23;20417;-76
2021/08/01 03:56:15;;;;;;;70.30;64.67;;;14.70;78.70;;;;;;6126917;23;20792;-76
2021/08/01 03:58:43;;;;;;;73.37;68.00;;;14.70;79.50;;;;;;6136827;23;20414;-75
2021/08/01 04:02:04;;;;;;;98.50;91.63;;;14.50;81.10;;;;;;6135123;23;20466;-83
2021/08/01 04:04:31;;;;;;;107.23;100.47;;;14.60;82.40;;;;;;6120752;23;20422;-79
2021/08/01 04:06:58;;;;;;;126.30;118.10;;;14.50;82.90;;;;;;6126906;23;20780;-81
2021/08/01 04:09:29;;;;;;;163.10;154.97;;;14.50;83.90;;;;;;6126789;23;20461;-82
2021/08/01 04:11:57;;;;;;;123.27;115.33;;;14.50;83.90;;;;;;6126862;23;20822;-83
2021/08/01 04:15:04;;;;;;;98.37;91.57;;;14.50;84.30;;;;;;6136470;23;20409;-82
2021/08/01 04:17:37;;;;;;;97.70;90.53;;;14.50;84.70;;;;;;6122137;23;20454;-80
2021/08/01 04:20:07;;;;;;;139.47;131.93;;;14.50;85.90;;;;;;6089525;23;20811;-80
2021/08/01 04:22:34;;;;;;;103.13;96.43;;;14.50;85.00;;;;;;6155383;23;20417;-80
2021/08/01 04:32:11;;;;;;;131.97;124.80;;;14.60;85.20;;;;;;5875282;23;20484;-80
2021/08/01 04:35:00;;;;;;;123.23;115.53;;;14.50;85.80;;;;;;6090436;23;20487;-83
2021/08/01 04:40:55;;;;;;;83.63;77.93;;;14.40;86.30;;;;;;6128813;23;20857;-80
2021/08/01 04:53:24;;;;;;;126.80;120.10;;;14.40;86.40;;;;;;6053776;23;20418;-79
2021/08/01 04:55:51;;;;;;;139.77;132.63;;;14.40;86.20;;;;;;6093739;23;20424;-80
2021/08/01 04:58:18;;;;;;;105.80;99.60;;;14.40;86.00;;;;;;6148539;23;20413;-81
2021/08/01 05:00:45;;;;;;;132.70;125.93;;;14.30;85.90;;;;;;6184084;23;20445;-79
2021/08/01 05:03:12;;;;;;;208.17;198.97;;;14.30;85.90;;;;;;6185272;23;20924;-79
2021/08/01 05:05:38;;;;;;;139.13;132.00;;;14.30;86.40;;;;;;6185727;23;20436;-80
2021/08/01 05:08:06;;;;;;;128.27;121.13;;;14.30;86.70;;;;;;6185588;23;20778;-79
2021/08/01 05:10:34;;;;;;;151.27;143.27;;;14.30;86.00;;;;;;6185413;23;20530;-79
2021/08/01 05:13:06;;;;;;;157.50;150.20;;;14.30;86.70;;;;;;6195508;23;20470;-81
2021/08/01 05:15:33;;;;;;;130.17;123.53;;;14.30;86.70;;;;;;6184207;23;20408;-80
2021/08/01 05:18:00;;;;;;;143.30;136.10;;;14.30;86.70;;;;;;6195107;23;20408;-79
2021/08/01 05:20:27;;;;;;;117.37;110.83;;;14.30;87.50;;;;;;6185540;23;20453;-79
2021/08/01 05:22:54;;;;;;;174.40;166.53;;;14.30;87.10;;;;;;6195527;23;20433;-81
2021/08/01 05:25:21;;;;;;;146.47;139.13;;;14.30;88.60;;;;;;6185101;23;20439;-79
2021/08/01 05:27:49;;;;;;;137.30;130.10;;;14.40;87.10;;;;;;6185342;23;20488;-81
2021/08/01 05:30:16;;;;;;;102.07;95.87;;;14.40;86.80;;;;;;6185129;23;20442;-79
2021/08/01 05:36:33;;;;;;;155.03;147.53;;;14.60;85.20;;;;;;6182063;23;20490;-81
2021/08/01 05:39:02;;;;;;;41.60;29.57;;;14.90;84.10;;;;;;6156350;23;20495;-79
2021/08/01 05:44:52;;;;;;;34.17;7.70;;;15.90;68.80;;;;;;6006341;23;20745;-83
2021/08/01 05:47:19;;;;;;;35.77;6.23;;;16.40;62.90;;;;;;6016198;23;20452;-81
2021/08/01 05:49:46;;;;;;;36.77;6.20;;;17.00;59.10;;;;;;6120453;23;20445;-82
2021/08/01 05:52:16;;;;;;;40.17;7.07;;;17.50;52.40;;;;;;6157675;23;20402;-82
2021/08/01 05:54:53;;;;;;;38.30;6.00;;;18.00;48.10;;;;;;6157896;23;20897;-81
2021/08/01 05:57:20;;;;;;;41.67;8.00;;;18.40;47.30;;;;;;6167704;23;20415;-80
2021/08/01 05:59:52;;;;;;;44.07;7.20;;;18.80;43.20;;;;;;6157695;23;20434;-83
2021/08/01 06:09:09;;;;;;;48.17;6.97;;;19.50;34.80;;;;;;5811333;23;20419;-79
2021/08/01 06:11:36;;;;;;;48.60;5.00;;;19.10;32.20;;;;;;6153774;23;20446;-80
2021/08/01 06:14:42;;;;;;;45.90;7.00;;;19.10;34.40;;;;;;6167040;23;20485;-89
2021/08/01 06:20:54;;;;;;;47.13;7.37;;;18.50;33.90;;;;;;6014387;23;20486;-84
2021/08/01 06:27:33;;;;;;;41.17;5.47;;;18.50;34.20;;;;;;6105352;23;20739;-85
2021/08/01 06:33:15;;;;;;;47.53;6.90;;;19.10;32.60;;;;;;6090384;23;20916;-84
2021/08/01 06:36:10;;;;;;;44.37;6.40;;;19.30;31.10;;;;;;6095637;23;20445;-84
2021/08/01 06:51:55;;;;;;;49.70;7.57;;;20.40;28.20;;;;;;6034345;23;20413;-84
2021/08/01 07:04:51;;;;;;;46.73;7.00;;;20.70;26.20;;;;;;5774607;24;20670;-84
2021/08/01 07:10:38;;;;;;;45.70;7.60;;;20.10;25.00;;;;;;6086668;23;21064;-83
2021/08/01 07:13:12;;;;;;;47.70;7.50;;;20.50;27.40;;;;;;6127314;23;20753;-85
2021/08/01 07:15:42;;;;;;;47.80;8.17;;;20.70;25.80;;;;;;6125807;23;21236;-84
2021/08/01 07:52:29;;;;;;;38.27;7.57;;;19.50;25.80;;;;;;5773761;24;20531;-84
2021/08/01 07:55:15;;;;;;;;;;;;;;;;;;;;;
2021/08/01 07:58:18;;;;;;;;;;;;;;;;;;;;;
2021/08/01 08:01:01;;;;;;;34.77;6.97;;;19.80;27.40;;;;;;6074515;23;20768;-85
2021/08/01 08:03:45;;;;;;;32.43;5.60;;;19.90;27.00;;;;;;6136323;23;20406;-84
2021/08/01 08:09:50;;;;;;;32.20;6.53;;;20.50;23.10;;;;;;6036594;23;20452;-86
2021/08/01 08:12:45;;;;;;;31.20;5.43;;;20.10;22.40;;;;;;6046232;23;20488;-87
2021/08/01 08:25:45;;;;;;;35.97;5.07;;;20.50;21.30;;;;;;5994893;23;20417;-84
2021/08/01 08:53:00;;;;;;;33.70;7.73;;;20.30;19.90;;;;;;5949359;23;20571;-87
2021/08/01 09:48:54;;;;;;;41.43;6.10;;;24.70;4.90;;;;;;6132212;23;20529;-84
2021/08/01 10:02:02;;;;;;;41.70;14.77;;;23.20;10.60;;;;;;5895473;24;20528;-88
2021/08/01 10:49:37;;;;;;;40.33;8.27;;;21.80;12.90;;;;;;5787857;24;20427;-86
2021/08/01 11:18:33;;;;;;;;;;;;;;;;;;;;;
2021/08/01 11:34:24;;;;;;;36.70;7.43;;;23.30;7.20;;;;;;5977594;23;20596;-80
2021/08/01 11:37:19;;;;;;;38.93;6.23;;;24.00;6.80;;;;;;6096457;23;20416;-81
2021/08/01 11:47:13;;;;;;;;;;;;;;;;;;;;;
2021/08/01 11:50:20;;;;;;;39.23;9.60;;;23.50;7.60;;;;;;5903591;24;20441;-83
2021/08/01 11:52:49;;;;;;;38.90;7.57;;;22.80;8.90;;;;;;5924548;24;20439;-82
2021/08/01 11:55:18;;;;;;;39.30;7.33;;;22.50;12.10;;;;;;6048603;23;20452;-82
2021/08/01 11:57:46;;;;;;;40.07;8.00;;;23.70;10.70;;;;;;6075477;23;21051;-81
2021/08/01 12:00:14;;;;;;;38.87;6.10;;;24.50;7.80;;;;;;6065910;23;20543;-81
2021/08/01 12:02:51;;;;;;;41.60;8.47;;;24.90;5.00;;;;;;6064838;23;20436;-82
2021/08/01 12:05:18;;;;;;;39.13;8.17;;;24.70;4.70;;;;;;6092308;23;20443;-81
2021/08/01 12:07:52;;;;;;;40.83;7.83;;;25.20;6.60;;;;;;6080838;23;20416;-81
2021/08/01 12:10:21;;;;;;;45.80;11.33;;;26.10;3.30;;;;;;6106802;23;20936;-81
2021/08/01 12:12:51;;;;;;;47.60;15.33;;;25.30;1.00;;;;;;6097600;23;21078;-82
2021/08/01 12:15:18;;;;;;;47.43;13.50;;;24.70;2.40;;;;;;6096882;23;20491;-82
2021/08/01 12:17:45;;;;;;;44.07;10.53;;;25.10;3.00;;;;;;6107042;23;20419;-82
2021/08/01 12:20:15;;;;;;;42.90;7.07;;;25.20;1.00;;;;;;6096968;23;20408;-81
2021/08/01 12:22:54;;;;;;;43.57;7.33;;;26.40;1.00;;;;;;6097413;23;20808;-84
2021/08/01 12:25:43;;;;;;;;;;;;;;;;;;;;;
2021/08/01 12:39:18;;;;;;;44.97;8.47;;;23.70;5.00;;;;;;6127035;23;20478;-80
2021/08/01 12:41:45;;;;;;;43.50;11.60;;;23.20;7.10;;;;;;6136027;23;20445;-79
2021/08/01 12:44:22;;;;;;;45.43;15.93;;;23.20;8.90;;;;;;6126495;23;20414;-79
2021/08/01 12:47:07;;;;;;;41.83;11.37;;;24.00;7.30;;;;;;6134841;23;20418;-80
2021/08/01 12:49:42;;;;;;;42.23;10.20;;;25.80;4.20;;;;;;6136034;23;20731;-79
2021/08/01 13:22:09;;;;;;;40.17;7.27;;;24.30;3.50;;;;;;5108915;27;20552;-79
2021/08/01 13:24:38;;;;;;;42.07;9.90;;;24.20;6.80;;;;;;5109403;28;20455;-79
2021/08/01 13:27:06;;;;;;;40.67;11.90;;;24.60;7.10;;;;;;5108992;28;20453;-81
2021/08/01 13:29:33;;;;;;;42.90;9.83;;;24.00;7.50;;;;;;5108761;28;20502;-77
2021/08/01 13:32:08;;;;;;;38.70;10.13;;;24.60;5.60;;;;;;5107519;28;20476;-77
2021/08/01 13:34:41;;;;;;;38.03;6.50;;;25.30;1.10;;;;;;5108984;28;20539;-78
2021/08/01 13:37:22;;;;;;;38.43;6.87;;;25.70;1.00;;;;;;5108656;28;20491;-78
2021/08/01 13:39:51;;;;;;;49.00;6.37;;;27.30;1.00;;;;;;5108834;28;20551;-79
2021/08/01 13:42:23;;;;;;;41.33;5.20;;;27.10;1.00;;;;;;5108762;28;20552;-85
2021/08/01 13:45:06;;;;;;;41.47;5.40;;;27.70;1.00;;;;;;5099069;28;20465;-80
2021/08/01 13:47:34;;;;;;;42.83;7.60;;;28.60;1.00;;;;;;5087148;28;20457;-78
2021/08/01 13:50:05;;;;;;;45.27;6.50;;;28.60;1.00;;;;;;5088370;28;20485;-77
2021/08/01 13:52:35;;;;;;;54.30;8.27;;;29.40;1.00;;;;;;5088334;28;20454;-79
2021/08/01 13:55:02;;;;;;;49.07;7.50;;;30.90;1.00;;;;;;5088300;28;20460;-80
2021/08/01 13:57:29;;;;;;;53.40;13.60;;;30.00;1.00;;;;;;5088230;28;20457;-78
2021/08/01 13:59:58;;;;;;;56.40;13.87;;;29.30;1.00;;;;;;5087693;28;20457;-81
2021/08/01 14:02:26;;;;;;;58.10;15.57;;;27.80;1.00;;;;;;5086780;28;20949;-80
2021/08/01 14:04:53;;;;;;;56.00;15.87;;;26.90;1.00;;;;;;5087986;28;20454;-78
2021/08/01 14:07:20;;;;;;;52.47;12.40;;;27.00;1.00;;;;;;5087844;28;20446;-81
2021/08/01 14:09:49;;;;;;;52.83;13.13;;;26.40;1.00;;;;;;5087863;28;20492;-79
2021/08/01 14:12:16;;;;;;;53.60;14.10;;;26.20;1.00;;;;;;5087769;28;20453;-76
2021/08/01 14:14:43;;;;;;;53.30;14.37;;;25.10;1.20;;;;;;5087987;28;20469;-77
2021/08/01 14:17:17;;;;;;;53.13;14.00;;;24.60;4.00;;;;;;5086708;28;20565;-82
2021/08/01 14:20:09;;;;;;;50.40;8.47;;;23.30;1.60;;;;;;5088953;28;20479;-81
2021/08/01 14:29:29;;;;;;;;;;;;;;;;;;;;;
2021/08/01 14:32:06;;;;;;;39.53;3.53;;;21.90;6.70;;;;;;4992129;28;20954;-84
2021/08/01 14:34:38;;;;;;;46.83;20.83;;;22.10;11.40;;;;;;4993752;28;20508;-83
2021/08/01 14:37:05;;;;;;;45.70;18.03;;;22.00;10.50;;;;;;5049553;28;20493;-79
2021/08/01 14:39:37;;;;;;;37.00;6.23;;;21.90;10.40;;;;;;5075265;28;20545;-79
2021/08/01 14:42:06;;;;;;;38.90;4.93;;;21.60;12.20;;;;;;5075268;28;20484;-79
2021/08/01 14:44:34;;;;;;;35.63;4.93;;;21.50;13.30;;;;;;5075020;28;20470;-80
2021/08/01 14:47:02;;;;;;;39.10;5.37;;;21.40;12.20;;;;;;5073797;28;20509;-79
2021/08/01 14:49:33;;;;;;;32.10;4.53;;;21.20;13.10;;;;;;5074813;28;20942;-79
2021/08/01 14:54:47;;;;;;;30.90;2.30;;;22.00;13.40;;;;;;5075126;28;20446;-78
2021/08/01 14:57:29;;;;;;;29.57;2.70;;;23.40;7.00;;;;;;5074716;28;20545;-79
2021/08/01 15:00:03;;;;;;;33.20;4.63;;;24.80;4.50;;;;;;5075027;28;20529;-81
2021/08/01 15:02:40;;;;;;;35.83;3.57;;;25.10;1.00;;;;;;5073620;28;20461;-79
2021/08/01 15:12:37;;;;;;;;;;;;;;;;;;;;;
2021/08/01 15:39:27;;;;;;;39.60;3.93;;;24.10;1.20;;;;;;4940924;28;20472;-83
2021/08/01 15:41:55;;;;;;;40.50;4.80;;;25.00;1.00;;;;;;5077805;28;20899;-79
2021/08/01 15:44:22;;;;;;;42.10;5.47;;;25.30;1.00;;;;;;5091909;28;20558;-81
2021/08/01 15:46:50;;;;;;;42.70;6.33;;;25.50;1.00;;;;;;5090650;28;20477;-82
2021/08/01 15:49:17;;;;;;;44.10;4.90;;;25.10;1.00;;;;;;5093366;28;20799;-84
2021/08/01 15:51:45;;;;;;;43.67;5.00;;;24.60;1.00;;;;;;5093933;28;20489;-81
2021/08/01 15:54:21;;;;;;;45.37;5.17;;;24.10;3.50;;;;;;5093994;28;20540;-80
2021/08/01 15:56:54;;;;;;;43.23;4.47;;;23.60;5.20;;;;;;5093881;28;20540;-80
2021/08/01 15:59:24;;;;;;;44.53;5.67;;;22.90;6.60;;;;;;5093905;28;20464;-80
2021/08/01 16:01:53;;;;;;;41.97;4.60;;;22.50;7.70;;;;;;5087873;28;20478;-80
2021/08/01 16:04:28;;;;;;;40.40;6.07;;;22.20;9.50;;;;;;5073486;28;20958;-78
2021/08/01 16:06:56;;;;;;;37.40;7.13;;;21.90;10.90;;;;;;5073454;28;20953;-78
2021/08/01 16:09:31;;;;;;;36.10;4.63;;;21.50;12.10;;;;;;5073337;28;20500;-80
2021/08/01 16:12:07;;;;;;;34.67;4.90;;;21.40;14.20;;;;;;5073203;28;20489;-80
2021/08/01 16:14:38;;;;;;;35.93;4.77;;;21.30;15.70;;;;;;5072883;28;20813;-80
2021/08/01 16:17:15;;;;;;;32.90;3.30;;;21.10;15.90;;;;;;5072074;28;21025;-82
2021/08/01 16:19:44;;;;;;;32.77;5.00;;;21.00;16.30;;;;;;5073029;28;20481;-79
2021/08/01 16:22:12;;;;;;;31.90;4.63;;;20.80;17.30;;;;;;5073304;28;20446;-80
2021/08/01 16:24:40;;;;;;;36.43;4.10;;;20.80;18.10;;;;;;5073425;28;20459;-79
2021/08/01 16:27:09;;;;;;;31.30;4.00;;;20.80;18.20;;;;;;5073090;28;20584;-79
2021/08/01 16:29:43;;;;;;;29.10;3.50;;;20.70;18.40;;;;;;5073005;28;20985;-84
2021/08/01 16:32:20;;;;;;;30.77;3.90;;;20.50;20.10;;;;;;5072196;28;20976;-84
2021/08/01 16:35:08;;;;;;;29.00;3.73;;;20.50;20.10;;;;;;5073467;28;20481;-89
2021/08/01 16:44:46;;;;;;;28.07;3.90;;;19.90;21.00;;;;;;5066806;28;20934;-88
2021/08/01 16:48:03;;;;;;;27.73;3.83;;;19.90;22.00;;;;;;5070834;28;20512;-87
2021/08/01 16:54:54;;;;;;;27.00;4.00;;;19.80;22.00;;;;;;5004119;28;20445;-84
2021/08/01 17:06:53;;;;;;;27.20;3.10;;;19.90;21.50;;;;;;4933141;28;20542;-79
2021/08/01 17:09:27;;;;;;;26.47;3.50;;;20.10;22.00;;;;;;4972757;28;20455;-80
2021/08/01 17:12:04;;;;;;;28.90;4.47;;;20.20;21.80;;;;;;4972779;28;20493;-79
2021/08/01 17:14:33;;;;;;;28.53;4.10;;;20.20;22.00;;;;;;4972580;28;20454;-78
2021/08/01 17:17:06;;;;;;;25.83;3.03;;;20.00;21.70;;;;;;4971329;28;20474;-79
2021/08/01 17:19:34;;;;;;;28.93;3.93;;;20.00;22.30;;;;;;4972503;28;20978;-79
2021/08/01 17:22:02;;;;;;;26.77;3.37;;;19.90;22.30;;;;;;4972495;28;21181;-79
2021/08/01 17:24:37;;;;;;;28.53;3.90;;;19.70;22.20;;;;;;4968957;28;20530;-80
2021/08/01 17:27:08;;;;;;;34.27;4.67;;;19.80;23.70;;;;;;4953413;29;20884;-79
2021/08/01 17:33:40;;;;;;;;;;;;;;;;;;;;;
2021/08/01 17:52:26;;;;;;;27.90;3.70;;;19.00;26.30;;;;;;4849527;29;20582;-79
2021/08/01 18:12:10;;;;;;;29.80;3.00;;;18.50;23.50;;;;;;4929118;29;20491;-91
2021/08/01 18:18:55;;;;;;;24.40;3.10;;;18.30;25.30;;;;;;4932198;29;20516;-92
2021/08/01 18:41:41;;;;;;;25.20;2.80;;;17.80;25.40;;;;;;4869674;29;20940;-88
2021/08/01 18:44:39;;;;;;;24.60;2.80;;;17.70;26.40;;;;;;4879608;29;20484;-88
2021/08/01 18:47:41;;;;;;;24.00;2.40;;;17.60;27.90;;;;;;4909834;29;20484;-89
2021/08/01 18:50:27;;;;;;;24.60;2.63;;;17.50;27.90;;;;;;4935326;29;20460;-90
2021/08/01 18:53:19;;;;;;;24.53;2.80;;;17.40;29.30;;;;;;4938086;29;20461;-93
2021/08/01 18:56:10;;;;;;;22.67;3.10;;;17.40;29.70;;;;;;4939444;29;20468;-91
2021/08/01 18:59:11;;;;;;;;;;;;;;;;;;;;;
2021/08/01 19:12:38;;;;;;;24.67;2.57;;;17.20;33.60;;;;;;4954591;28;20908;-89
2021/08/01 19:22:26;;;;;;;24.00;2.83;;;17.10;32.60;;;;;;4743390;30;20524;-89
2021/08/01 19:37:06;;;;;;;23.00;3.23;;;17.10;33.40;;;;;;4802880;29;20447;-91
2021/08/01 19:57:18;;;;;;;23.17;2.90;;;16.80;34.00;;;;;;4858128;29;20467;-88
2021/08/01 20:00:29;;;;;;;22.00;3.07;;;16.80;34.90;;;;;;4818312;29;20998;-87
2021/08/01 20:49:14;;;;;;;25.20;5.90;;;16.30;47.90;;;;;;4877590;29;20483;-91
2021/08/01 20:52:21;;;;;;;25.37;6.10;;;16.40;49.90;;;;;;4914224;29;20846;-93
2021/08/01 20:55:33;;;;;;;26.97;6.67;;;16.30;49.80;;;;;;4879349;29;20461;-91
2021/08/01 20:58:58;;;;;;;;;;;;;;;;;;;;;
2021/08/01 21:01:47;;;;;;;23.57;5.50;;;16.30;51.50;;;;;;4823135;29;20989;-90
2021/08/01 21:33:39;;;;;;;;;;;;;;;;;;;;;
2021/08/01 22:00:22;;;;;;;28.03;11.20;;;15.90;58.10;;;;;;4812666;29;20455;-89
2021/08/01 22:06:40;;;;;;;;;;;;;;;;;;;;;
2021/08/01 22:09:43;;;;;;;34.00;13.70;;;15.90;58.70;;;;;;4859216;29;20460;-92
2021/08/01 22:19:21;;;;;;;;;;;;;;;;;;;;;
2021/08/01 22:29:14;;;;;;;33.00;17.33;;;15.80;64.40;;;;;;4769527;30;20551;-91
2021/08/01 22:42:26;;;;;;;31.43;16.57;;;15.80;66.30;;;;;;4804535;29;20490;-92
2021/08/01 22:49:07;;;;;;;36.43;17.60;;;15.90;66.40;;;;;;4747059;30;20464;-91
2021/08/01 22:58:54;;;;;;;37.37;25.37;;;15.90;67.50;;;;;;4847397;29;20469;-90
2021/08/01 23:02:04;;;;;;;35.60;23.87;;;15.80;67.90;;;;;;4869430;29;20455;-90
2021/08/01 23:11:27;;;;;;;;;;;;;;;;;;;;;
2021/08/01 23:14:27;;;;;;;41.20;34.10;;;15.80;70.00;;;;;;4973453;28;20478;-90
2021/08/01 23:17:46;;;;;;;;;;;;;;;;;;;;;
2021/08/01 23:21:23;;;;;;;;;;;;;;;;;;;;;
2021/08/01 23:35:20;;;;;;;;;;;;;;;;;;;;;
2021/08/01 23:51:07;;;;;;;41.50;33.77;;;15.80;73.30;;;;;;4829703;29;20461;-90
2021/08/01 23:54:15;;;;;;;40.57;32.60;;;15.70;73.50;;;;;;4930292;29;20501;-91
2021/08/01 23:57:33;;;;;;;;;;;;;;;;;;;;;
